Time;durP1;ratioP1;P1;durP2;ratioP2;P2;SDS_P1;SDS_P2;PMS_P1;PMS_P2;Temp;Humidity;BMP_temperature;BMP_pressure;BME280_temperature;BME280_humidity;BME280_pressure;Samples;Min_cycle;Max_cycle;Signal;HPM_P1;HPM_P2
2023/12/05 00:15:00;;;;;;;134.70;41.50;;;;;;;-1.92;77.57;100695.02;677976;1265;140607;-79
2023/12/05 00:30:37;;;;;;;183.30;50.60;;;;;;;-2.08;77.60;100688.80;679526;1265;140711;-80
2023/12/05 00:46:14;;;;;;;135.90;40.80;;;;;;;-2.27;77.31;100689.14;677361;1264;140142;-80
2023/12/05 01:01:51;;;;;;;121.70;40.60;;;;;;;-2.45;76.91;100686.75;675513;1262;140834;-80
2023/12/05 01:17:36;;;;;;;144.80;43.90;;;;;;;-2.63;76.65;100687.73;675603;1266;10141291;-80
2023/12/05 01:33:13;;;;;;;107.30;37.40;;;;;;;-2.90;76.78;100680.21;676354;1263;141180;-80
2023/12/05 01:48:50;;;;;;;123.10;39.20;;;;;;;-2.95;76.65;100677.42;677268;1263;140387;-80
2023/12/05 02:04:27;;;;;;;132.60;41.80;;;;;;;-3.28;76.17;100664.23;672388;1265;139392;-80
2023/12/05 02:20:14;;;;;;;123.70;39.60;;;;;;;-3.38;75.91;100653.17;672607;1265;139665;-80
2023/12/05 02:35:52;;;;;;;117.90;40.00;;;;;;;-3.32;75.91;100650.30;677177;1266;139607;-80
2023/12/05 02:51:29;;;;;;;134.70;44.30;;;;;;;-3.29;75.43;100639.45;670894;1266;140070;-79
2023/12/05 03:07:06;;;;;;;135.30;42.60;;;;;;;-3.47;74.98;100635.80;670924;1266;140803;-79
2023/12/05 03:22:43;;;;;;;107.30;38.00;;;;;;;-3.67;74.92;100633.17;671587;1265;140204;-79
2023/12/05 03:38:20;;;;;;;120.20;41.20;;;;;;;-3.86;74.88;100630.38;674355;1265;139894;-80
2023/12/05 03:53:58;;;;;;;96.50;38.10;;;;;;;-3.92;74.67;100625.72;670125;1260;140131;-79
2023/12/05 04:09:35;;;;;;;190.60;53.90;;;;;;;-3.85;74.59;100614.29;675939;1272;139556;-79
2023/12/05 04:25:13;;;;;;;162.60;48.90;;;;;;;-3.89;74.74;100613.86;675682;1266;139521;-80
2023/12/05 04:40:50;;;;;;;136.80;40.00;;;;;;;-3.86;74.40;100602.68;672136;1273;139663;-79
2023/12/05 04:56:27;;;;;;;128.50;39.90;;;;;;;-4.06;73.85;100605.35;675141;1265;140343;-79
2023/12/05 05:12:08;;;;;;;90.70;31.30;;;;;;;-4.15;73.75;100619.04;681663;1271;140142;-79
2023/12/05 05:27:45;;;;;;;112.70;33.10;;;;;;;-4.52;73.09;100617.95;681771;1266;139280;-79
2023/12/05 05:43:22;;;;;;;602.40;161.50;;;;;;;-4.71;73.05;100612.50;681841;1262;139722;-78
2023/12/05 05:58:59;;;;;;;427.50;115.30;;;;;;;-4.60;72.53;100608.70;682124;1264;139791;-79
2023/12/05 06:14:36;;;;;;;194.80;52.20;;;;;;;-4.60;71.59;100619.46;681825;1268;139417;-79
2023/12/05 06:30:13;;;;;;;121.70;39.60;;;;;;;-4.28;72.20;100617.10;682249;1263;140402;-79
2023/12/05 06:45:56;;;;;;;207.60;58.80;;;;;;;-3.83;72.82;100620.89;682132;1263;139479;-79
2023/12/05 07:01:33;;;;;;;291.40;90.90;;;;;;;-3.41;72.55;100636.67;681748;1263;139695;-78
2023/12/05 07:17:10;;;;;;;197.60;71.00;;;;;;;-3.38;72.43;100645.49;681849;1263;140223;-79
2023/12/05 07:32:47;;;;;;;191.00;59.90;;;;;;;-3.10;72.28;100639.48;681866;1263;139987;-79
2023/12/05 07:48:24;;;;;;;200.60;64.40;;;;;;;-2.77;72.24;100632.98;681591;1266;139558;-80
2023/12/05 08:04:02;;;;;;;188.40;68.40;;;;;;;-2.41;72.31;100623.06;681624;1266;140110;-80
2023/12/05 08:19:39;;;;;;;245.90;76.40;;;;;;;-2.19;74.05;100615.23;681615;1261;139670;-79
2023/12/05 08:35:16;;;;;;;158.40;58.10;;;;;;;-1.65;74.69;100612.37;681569;1263;139647;-79
2023/12/05 08:50:53;;;;;;;153.10;56.20;;;;;;;-0.73;73.91;100613.19;681624;1266;139873;-79
2023/12/05 09:06:30;;;;;;;176.70;69.60;;;;;;;-0.46;74.98;100605.90;681669;1271;140507;-79
2023/12/05 09:22:07;;;;;;;239.10;73.50;;;;;;;2.16;77.24;100607.11;681627;1265;139345;-80
2023/12/05 09:37:44;;;;;;;259.80;86.70;;;;;;;6.47;74.17;100605.82;681775;1263;141616;-80
2023/12/05 09:53:22;;;;;;;577.20;204.10;;;;;;;8.60;68.87;100590.39;681805;1266;139261;-80
2023/12/05 10:09:00;;;;;;;365.30;123.60;;;;;;;7.47;64.83;100572.88;681542;1265;139157;-80
2023/12/05 10:24:51;;;;;;;168.90;66.60;;;;;;;6.29;63.69;100572.75;682478;1267;138460;-80
2023/12/05 10:40:28;;;;;;;154.90;47.50;;;;;;;5.52;63.15;100572.19;682269;1263;137795;-80
2023/12/05 10:56:26;;;;;;;232.60;80.90;;;;;;;5.84;62.66;100555.26;682279;1262;139050;-82
2023/12/05 11:12:05;;;;;;;154.60;61.40;;;;;;;6.45;61.20;100533.09;682213;1271;137778;-83
2023/12/05 11:28:06;;;;;;;182.70;61.80;;;;;;;6.21;61.18;100512.98;682049;1257;138432;-80
2023/12/05 11:43:43;;;;;;;72.90;32.90;;;;;;;5.41;60.42;100506.73;682236;1257;138648;-81
2023/12/05 11:59:22;;;;;;;58.90;25.00;;;;;;;4.57;61.08;100497.15;682233;1263;137586;-82
2023/12/05 12:15:00;;;;;;;103.90;41.10;;;;;;;4.21;61.43;100478.13;682197;1260;138355;-81
2023/12/05 12:30:41;;;;;;;58.80;26.10;;;;;;;3.57;61.80;100470.85;682362;1264;138182;-81
2023/12/05 12:46:18;;;;;;;67.50;30.20;;;;;;;3.43;62.08;100472.45;682591;1259;138527;-80
2023/12/05 13:01:55;;;;;;;420.00;123.60;;;;;;;3.25;62.18;100459.27;682379;1264;138757;-81
2023/12/05 13:17:33;;;;;;;130.90;43.40;;;;;;;2.92;62.43;100454.80;682430;1262;138691;-80
2023/12/05 13:33:17;;;;;;;177.60;56.60;;;;;;;2.38;63.36;100456.07;674950;1273;139005;-81
2023/12/05 13:49:01;;;;;;;;;;;;;;;2.13;63.80;100456.77;682634;1258;140280;-82
2023/12/05 14:04:40;;;;;;;68.00;27.90;;;;;;;1.78;63.90;100451.11;682253;1262;125863;-80
2023/12/05 14:20:17;;;;;;;;;;;;;;;1.33;64.24;100447.36;682155;1257;138999;-80
2023/12/05 14:35:54;;;;;;;;;;;;;;;1.19;64.14;100460.41;682418;1259;125312;-80
2023/12/05 14:51:35;;;;;;;125.40;43.70;;;;;;;1.18;63.76;100464.95;682465;1258;125473;-81
2023/12/05 15:07:12;;;;;;;118.50;48.70;;;;;;;0.78;64.67;100469.48;682511;1261;139269;-80
2023/12/05 15:22:49;;;;;;;214.50;66.10;;;;;;;0.33;65.65;100468.17;682465;1260;139924;-80
2023/12/05 15:38:26;;;;;;;163.50;55.40;;;;;;;0.05;66.15;100475.84;682153;1258;139790;-80
2023/12/05 15:54:03;;;;;;;82.30;31.30;;;;;;;-0.09;66.22;100473.00;682593;1257;139015;-79
2023/12/05 16:09:43;;;;;;;249.60;67.90;;;;;;;-0.22;66.86;100479.02;682453;1257;141273;-79
2023/12/05 16:25:21;;;;;;;172.90;58.50;;;;;;;-0.40;67.16;100481.58;682309;1261;140320;-79
2023/12/05 16:40:59;;;;;;;87.30;33.40;;;;;;;-0.52;67.42;100498.92;682483;1263;139095;-78
2023/12/05 16:56:36;;;;;;;218.30;66.10;;;;;;;-0.55;67.73;100500.37;682485;1260;139730;-78
2023/12/05 17:12:14;;;;;;;355.00;95.80;;;;;;;-0.63;67.55;100509.79;682363;1261;139939;-80
2023/12/05 17:27:51;;;;;;;199.50;59.40;;;;;;;-0.79;67.71;100515.04;681957;1262;140432;-80
2023/12/05 17:43:28;;;;;;;135.70;45.10;;;;;;;-0.91;67.95;100520.09;682429;1260;140303;-80
2023/12/05 17:59:05;;;;;;;112.80;39.20;;;;;;;-0.99;68.10;100526.58;682429;1260;139199;-81
2023/12/05 18:14:42;;;;;;;98.40;35.00;;;;;;;-1.13;68.03;100517.27;682257;1262;140652;-79
2023/12/05 18:30:20;;;;;;;142.30;42.40;;;;;;;-1.24;68.26;100523.17;682340;1264;139981;-79
2023/12/05 18:45:57;;;;;;;312.90;85.80;;;;;;;-1.30;68.82;100529.55;682482;1260;139635;-79
2023/12/05 19:01:34;;;;;;;163.60;50.20;;;;;;;-1.36;68.88;100531.65;682476;1258;139600;-79
2023/12/05 19:17:13;;;;;;;152.30;47.30;;;;;;;-1.38;69.14;100533.79;682512;1258;138038;-80
2023/12/05 19:32:57;;;;;;;140.50;46.10;;;;;;;-1.48;69.03;100530.02;682490;1260;140265;-80
2023/12/05 19:48:48;;;;;;;299.20;82.30;;;;;;;-1.63;68.90;100537.53;682687;1261;22279;-80
2023/12/05 20:04:25;;;;;;;116.50;42.90;;;;;;;-1.85;69.19;100540.64;682449;1262;139482;-80
2023/12/05 20:20:03;;;;;;;126.40;43.20;;;;;;;-2.01;69.22;100542.01;682228;1262;139896;-80
2023/12/05 20:35:39;;;;;;;108.50;38.30;;;;;;;-2.11;69.51;100540.27;682283;1257;139912;-79
2023/12/05 20:51:20;;;;;;;108.50;34.80;;;;;;;-2.19;70.35;100541.88;682256;1263;139887;-79
2023/12/05 21:06:57;;;;;;;116.60;39.20;;;;;;;-2.22;70.27;100542.83;682317;1263;139665;-79
2023/12/05 21:22:34;;;;;;;85.50;32.20;;;;;;;-2.24;70.53;100550.80;682518;1257;140537;-79
2023/12/05 21:38:20;;;;;;;137.70;46.10;;;;;;;-2.35;70.68;100549.07;682507;1263;140113;-79
2023/12/05 21:53:58;;;;;;;83.80;32.50;;;;;;;-2.41;70.94;100563.44;682457;1262;142219;-79
2023/12/05 22:09:37;;;;;;;79.70;31.20;;;;;;;-2.44;71.27;100568.33;682423;1260;139856;-79
2023/12/05 22:25:14;;;;;;;81.70;32.40;;;;;;;-2.34;71.65;100565.48;682393;1261;140633;-79
2023/12/05 22:40:53;;;;;;;227.10;70.20;;;;;;;-2.30;72.74;100576.34;682346;1262;139727;-79
2023/12/05 22:56:30;;;;;;;83.70;31.90;;;;;;;-2.40;72.78;100584.14;682503;1260;139913;-79
2023/12/05 23:12:07;;;;;;;106.20;40.20;;;;;;;-2.30;73.04;100567.23;682860;1262;140558;-80
2023/12/05 23:27:44;;;;;;;95.50;35.20;;;;;;;-2.30;73.47;100554.04;682954;1260;140638;-79
2023/12/05 23:43:23;;;;;;;116.50;38.50;;;;;;;-2.18;74.00;100566.54;683288;1261;139902;-79
2023/12/05 23:59:00;;;;;;;90.30;33.90;;;;;;;-2.12;74.26;100562.24;683380;1263;22200;-80
